Time;durP1;ratioP1;P1;durP2;ratioP2;P2;SDS_P1;SDS_P2;PMS_P1;PMS_P2;Temp;Humidity;BMP_temperature;BMP_pressure;BME280_temperature;BME280_humidity;BME280_pressure;Samples;Min_cycle;Max_cycle;Signal;HPM_P1;HPM_P2
2022/01/29 00:01:04;;;;;;;11.45;4.45;;;;;;;;;;4950698;28;20330;-67
2022/01/29 00:03:32;;;;;;;10.18;3.65;;;;;;;;;;4951023;28;20561;-67
2022/01/29 00:05:58;;;;;;;12.38;4.82;;;;;;;;;;4949783;28;20456;-67
2022/01/29 00:08:24;;;;;;;12.23;3.72;;;;;;;;;;4949935;28;20445;-67
2022/01/29 00:10:54;;;;;;;16.70;5.47;;;;;;;;;;4968273;28;20363;-67
2022/01/29 00:13:19;;;;;;;16.85;3.97;;;;;;;;;;4952623;28;20367;-67
2022/01/29 00:15:45;;;;;;;11.60;3.75;;;;;;;;;;4952187;28;20367;-67
2022/01/29 00:18:10;;;;;;;12.48;4.35;;;;;;;;;;4969002;28;20095;-67
2022/01/29 00:20:35;;;;;;;11.43;4.38;;;;;;;;;;4969426;28;20422;-67
2022/01/29 00:23:01;;;;;;;11.25;3.53;;;;;;;;;;4969080;28;20030;-67
2022/01/29 00:25:26;;;;;;;13.07;4.22;;;;;;;;;;4951552;28;20412;-67
2022/01/29 00:27:53;;;;;;;10.35;4.07;;;;;;;;;;4970437;28;20406;-67
2022/01/29 00:30:25;;;;;;;11.98;4.43;;;;;;;;;;4969235;28;20480;-67
2022/01/29 00:32:50;;;;;;;12.20;4.95;;;;;;;;;;4969778;28;20116;-67
2022/01/29 00:35:16;;;;;;;8.05;3.67;;;;;;;;;;4951358;28;20021;-67
2022/01/29 00:37:41;;;;;;;9.50;4.10;;;;;;;;;;4951195;28;20091;-68
2022/01/29 00:40:07;;;;;;;13.75;4.63;;;;;;;;;;4951138;28;20494;-67
2022/01/29 00:42:32;;;;;;;12.15;3.30;;;;;;;;;;4968908;28;20030;-67
2022/01/29 00:44:58;;;;;;;16.17;4.15;;;;;;;;;;4969281;28;20029;-68
2022/01/29 00:47:23;;;;;;;11.35;3.97;;;;;;;;;;4951331;28;20029;-67
2022/01/29 00:49:48;;;;;;;11.10;3.45;;;;;;;;;;4968605;28;20388;-67
2022/01/29 00:52:14;;;;;;;15.07;4.50;;;;;;;;;;4969291;28;20447;-67
2022/01/29 00:54:39;;;;;;;9.32;3.70;;;;;;;;;;4969172;28;20466;-67
2022/01/29 00:57:05;;;;;;;10.77;3.35;;;;;;;;;;4969245;28;20033;-68
2022/01/29 00:59:32;;;;;;;13.07;4.55;;;;;;;;;;4951469;28;20417;-67
2022/01/29 01:01:57;;;;;;;13.68;4.03;;;;;;;;;;4947344;28;20405;-67
2022/01/29 01:04:23;;;;;;;11.38;4.30;;;;;;;;;;4935918;28;20401;-67
2022/01/29 01:06:48;;;;;;;12.43;3.47;;;;;;;;;;4952555;28;20033;-67
2022/01/29 01:09:13;;;;;;;9.85;3.40;;;;;;;;;;4948012;28;20342;-67
2022/01/29 01:11:39;;;;;;;10.93;4.00;;;;;;;;;;4933350;28;20560;-67
2022/01/29 01:14:04;;;;;;;13.93;3.40;;;;;;;;;;4933704;28;20511;-67
2022/01/29 01:16:30;;;;;;;13.07;3.20;;;;;;;;;;4933027;28;20468;-66
2022/01/29 01:18:55;;;;;;;9.10;3.53;;;;;;;;;;4934429;28;20403;-66
2022/01/29 01:21:20;;;;;;;14.45;3.17;;;;;;;;;;4933087;28;20416;-67
2022/01/29 01:23:46;;;;;;;6.55;3.65;;;;;;;;;;4933600;28;20026;-67
2022/01/29 01:26:11;;;;;;;12.77;3.58;;;;;;;;;;4933179;28;20437;-67
2022/01/29 01:28:36;;;;;;;7.53;3.03;;;;;;;;;;4931696;28;20471;-66
2022/01/29 01:31:02;;;;;;;14.75;3.65;;;;;;;;;;4933165;28;20034;-67
2022/01/29 01:33:27;;;;;;;7.72;3.25;;;;;;;;;;4933234;28;20352;-68
2022/01/29 01:35:58;;;;;;;12.63;3.78;;;;;;;;;;4931787;28;20399;-68
2022/01/29 01:39:04;;;;;;;8.90;4.15;;;;;;;;;;4931470;28;20519;-66
2022/01/29 01:41:20;;;;;;;9.15;3.20;;;;;;;;;;4928460;28;20543;-67
2022/01/29 01:43:45;;;;;;;10.30;2.92;;;;;;;;;;4932764;28;20052;-67
2022/01/29 01:46:11;;;;;;;12.15;3.55;;;;;;;;;;4935381;28;20026;-67
2022/01/29 01:48:36;;;;;;;8.95;3.00;;;;;;;;;;4951901;28;20478;-68
2022/01/29 01:51:01;;;;;;;9.27;2.80;;;;;;;;;;4952134;28;20352;-66
2022/01/29 01:53:27;;;;;;;10.30;3.30;;;;;;;;;;4950647;28;20436;-67
2022/01/29 01:55:52;;;;;;;9.13;3.25;;;;;;;;;;4951991;28;20165;-66
2022/01/29 01:58:18;;;;;;;10.40;3.28;;;;;;;;;;4952209;28;20417;-67
2022/01/29 02:00:43;;;;;;;6.97;3.20;;;;;;;;;;4951859;28;20456;-67
2022/01/29 02:03:10;;;;;;;8.95;3.60;;;;;;;;;;4951471;28;20459;-67
2022/01/29 02:05:35;;;;;;;7.60;2.55;;;;;;;;;;4950451;28;20341;-67
2022/01/29 02:08:02;;;;;;;5.72;3.13;;;;;;;;;;4950523;28;20365;-66
2022/01/29 02:10:28;;;;;;;6.47;2.90;;;;;;;;;;4935247;28;20488;-66
2022/01/29 02:13:00;;;;;;;7.18;3.15;;;;;;;;;;4931425;28;20516;-66
2022/01/29 02:15:26;;;;;;;11.57;2.97;;;;;;;;;;4931756;28;20399;-67
2022/01/29 02:17:52;;;;;;;7.90;2.70;;;;;;;;;;4932870;28;20385;-66
2022/01/29 02:20:22;;;;;;;9.63;2.97;;;;;;;;;;4915576;28;20451;-67
2022/01/29 02:22:47;;;;;;;7.32;2.50;;;;;;;;;;4931696;28;20082;-67
2022/01/29 02:25:29;;;;;;;11.18;3.15;;;;;;;;;;4914588;28;20596;-67
2022/01/29 02:27:57;;;;;;;9.23;3.05;;;;;;;;;;4931994;28;20361;-66
2022/01/29 02:30:22;;;;;;;9.70;2.80;;;;;;;;;;4932042;28;20440;-66
2022/01/29 02:32:48;;;;;;;11.02;3.47;;;;;;;;;;4931907;28;20456;-66
2022/01/29 02:35:13;;;;;;;7.38;2.65;;;;;;;;;;4914510;28;20061;-67
2022/01/29 02:37:39;;;;;;;7.60;2.70;;;;;;;;;;4932485;28;20310;-66
2022/01/29 02:40:05;;;;;;;5.88;2.78;;;;;;;;;;4931903;28;20433;-66
2022/01/29 02:42:30;;;;;;;7.65;3.35;;;;;;;;;;4931835;28;20460;-66
2022/01/29 02:44:56;;;;;;;10.18;2.95;;;;;;;;;;4932218;28;20483;-68
2022/01/29 02:47:30;;;;;;;6.80;2.67;;;;;;;;;;4931383;28;20349;-66
2022/01/29 02:49:56;;;;;;;8.80;3.70;;;;;;;;;;4931388;28;20320;-66
2022/01/29 02:52:21;;;;;;;6.72;2.47;;;;;;;;;;4932269;28;20023;-66
2022/01/29 02:54:46;;;;;;;8.70;2.38;;;;;;;;;;4931086;28;20420;-67
2022/01/29 02:57:12;;;;;;;9.88;2.70;;;;;;;;;;4931520;28;20472;-66
2022/01/29 02:59:37;;;;;;;5.95;2.58;;;;;;;;;;4932927;28;20349;-66
2022/01/29 03:02:03;;;;;;;11.55;2.60;;;;;;;;;;4913806;28;20402;-66
2022/01/29 03:04:28;;;;;;;9.52;2.80;;;;;;;;;;4931463;28;20423;-66
2022/01/29 03:06:53;;;;;;;7.97;2.38;;;;;;;;;;4913580;28;20531;-68
2022/01/29 03:09:20;;;;;;;7.72;3.15;;;;;;;;;;4937304;28;20345;-66
2022/01/29 03:11:45;;;;;;;9.55;3.13;;;;;;;;;;4950539;28;20038;-67
2022/01/29 03:14:11;;;;;;;10.15;2.72;;;;;;;;;;4950201;28;20135;-66
2022/01/29 03:16:36;;;;;;;6.53;3.08;;;;;;;;;;4950898;28;20501;-67
2022/01/29 03:19:02;;;;;;;6.70;3.05;;;;;;;;;;4950535;28;20467;-66
2022/01/29 03:21:27;;;;;;;6.88;2.55;;;;;;;;;;4950729;28;20413;-66
2022/01/29 03:23:52;;;;;;;5.88;2.28;;;;;;;;;;4950079;28;20041;-67
2022/01/29 03:26:18;;;;;;;16.77;3.20;;;;;;;;;;4949782;28;20424;-66
2022/01/29 03:28:43;;;;;;;8.05;3.42;;;;;;;;;;4933449;28;20496;-66
2022/01/29 03:31:09;;;;;;;5.80;2.88;;;;;;;;;;4950388;28;20321;-66
2022/01/29 03:33:34;;;;;;;7.82;2.72;;;;;;;;;;4949839;28;20448;-66
2022/01/29 03:36:00;;;;;;;5.97;2.65;;;;;;;;;;4950876;28;20092;-66
2022/01/29 03:38:25;;;;;;;6.88;2.88;;;;;;;;;;4949974;28;20322;-66
2022/01/29 03:40:52;;;;;;;5.53;2.30;;;;;;;;;;4950451;28;20458;-66
2022/01/29 03:43:26;;;;;;;9.48;2.78;;;;;;;;;;4932426;28;20092;-66
2022/01/29 03:45:51;;;;;;;10.38;2.88;;;;;;;;;;4948527;28;20076;-66
2022/01/29 03:48:17;;;;;;;5.55;2.40;;;;;;;;;;4968868;28;20120;-66
2022/01/29 03:50:42;;;;;;;7.45;2.75;;;;;;;;;;4969805;28;20343;-67
2022/01/29 03:53:07;;;;;;;10.30;3.15;;;;;;;;;;4970101;28;20328;-66
2022/01/29 03:55:33;;;;;;;6.28;2.85;;;;;;;;;;4969386;28;20347;-67
2022/01/29 03:57:58;;;;;;;8.10;2.88;;;;;;;;;;4951891;28;20515;-66
2022/01/29 04:00:23;;;;;;;5.70;2.83;;;;;;;;;;4969468;28;20387;-66
2022/01/29 04:02:48;;;;;;;6.18;2.55;;;;;;;;;;4969845;28;20498;-66
2022/01/29 04:05:14;;;;;;;3.40;1.85;;;;;;;;;;4969146;28;20310;-67
2022/01/29 04:07:41;;;;;;;7.40;3.15;;;;;;;;;;4970013;28;20440;-67
2022/01/29 04:10:06;;;;;;;11.07;2.80;;;;;;;;;;4968695;28;20452;-66
2022/01/29 04:12:38;;;;;;;5.70;2.10;;;;;;;;;;4969695;28;20452;-67
2022/01/29 04:15:04;;;;;;;10.45;3.10;;;;;;;;;;4969250;28;20055;-66
2022/01/29 04:17:29;;;;;;;7.85;2.83;;;;;;;;;;4969466;28;20029;-66
2022/01/29 04:19:54;;;;;;;8.23;3.00;;;;;;;;;;4970142;28;20029;-67
2022/01/29 04:22:20;;;;;;;6.35;2.15;;;;;;;;;;4969586;28;20421;-66
2022/01/29 04:24:45;;;;;;;5.90;2.55;;;;;;;;;;4969138;28;20470;-66
2022/01/29 04:27:17;;;;;;;7.18;2.88;;;;;;;;;;4969279;28;20389;-66
2022/01/29 04:29:54;;;;;;;10.10;2.60;;;;;;;;;;4969157;28;20317;-67
2022/01/29 04:32:26;;;;;;;8.07;2.60;;;;;;;;;;4970717;28;20328;-67
2022/01/29 04:34:52;;;;;;;7.28;2.90;;;;;;;;;;4952886;28;20033;-66
2022/01/29 04:37:17;;;;;;;8.25;3.00;;;;;;;;;;4972965;28;20493;-66
2022/01/29 04:39:42;;;;;;;12.02;3.42;;;;;;;;;;4972960;28;20371;-67
2022/01/29 04:42:07;;;;;;;7.80;3.22;;;;;;;;;;4972895;28;20310;-68
2022/01/29 04:44:33;;;;;;;6.25;3.20;;;;;;;;;;4972850;28;20486;-66
2022/01/29 04:46:58;;;;;;;7.07;2.50;;;;;;;;;;4972768;28;20416;-66
2022/01/29 04:49:23;;;;;;;5.95;2.72;;;;;;;;;;4974256;28;20527;-66
2022/01/29 04:51:49;;;;;;;6.80;2.42;;;;;;;;;;4972945;28;20363;-66
2022/01/29 04:54:14;;;;;;;6.20;2.88;;;;;;;;;;4973730;28;20152;-66
2022/01/29 04:56:39;;;;;;;9.45;2.92;;;;;;;;;;4973698;28;20440;-66
2022/01/29 04:59:05;;;;;;;6.28;2.42;;;;;;;;;;4972246;28;20159;-66
2022/01/29 05:01:30;;;;;;;6.85;2.63;;;;;;;;;;4972846;28;20444;-66
2022/01/29 05:03:55;;;;;;;8.15;2.65;;;;;;;;;;4971927;28;20436;-66
2022/01/29 05:06:21;;;;;;;5.90;2.63;;;;;;;;;;4972586;28;20236;-66
2022/01/29 05:08:46;;;;;;;8.20;3.90;;;;;;;;;;4954221;28;20497;-67
2022/01/29 05:11:14;;;;;;;9.95;2.97;;;;;;;;;;4973367;28;20378;-66
2022/01/29 05:13:41;;;;;;;7.60;3.45;;;;;;;;;;4955501;28;20048;-66
2022/01/29 05:27:03;;;;;;;12.23;3.90;;;;;;;;;;4972705;28;20344;-66
2022/01/29 05:29:31;;;;;;;;;;;;;;;;;;4972437;28;20096;-67
2022/01/29 05:32:04;;;;;;;5.38;2.88;;;;;;;;;;4986678;28;20232;-66
2022/01/29 05:34:30;;;;;;;6.05;3.20;;;;;;;;;;4954715;28;20033;-66
2022/01/29 05:36:55;;;;;;;9.20;3.78;;;;;;;;;;4971372;28;20021;-66
2022/01/29 05:39:21;;;;;;;7.90;3.20;;;;;;;;;;4972483;28;20352;-66
2022/01/29 05:41:46;;;;;;;8.60;3.88;;;;;;;;;;4954890;28;20424;-66
2022/01/29 05:44:12;;;;;;;4.80;2.40;;;;;;;;;;4972907;28;20378;-67
2022/01/29 05:46:39;;;;;;;9.93;3.58;;;;;;;;;;4971787;28;20065;-66
2022/01/29 05:49:04;;;;;;;10.90;3.88;;;;;;;;;;4954126;28;20302;-66
2022/01/29 05:51:30;;;;;;;10.80;3.90;;;;;;;;;;4972670;28;20371;-66
2022/01/29 05:54:00;;;;;;;9.55;2.92;;;;;;;;;;4972302;28;20348;-67
2022/01/29 05:56:26;;;;;;;10.07;4.13;;;;;;;;;;4971275;28;20498;-66
2022/01/29 05:58:52;;;;;;;12.18;4.07;;;;;;;;;;4953467;28;20333;-66
2022/01/29 06:01:18;;;;;;;6.43;2.97;;;;;;;;;;4971860;28;20047;-67
2022/01/29 06:03:43;;;;;;;8.80;3.30;;;;;;;;;;4953837;28;20419;-66
2022/01/29 06:06:09;;;;;;;8.38;3.25;;;;;;;;;;4972611;28;20416;-66
2022/01/29 06:08:34;;;;;;;8.35;3.60;;;;;;;;;;4971541;28;20519;-66
2022/01/29 06:10:59;;;;;;;5.00;2.65;;;;;;;;;;4932334;28;20093;-66
2022/01/29 06:13:25;;;;;;;8.35;3.58;;;;;;;;;;4932287;28;20425;-66
2022/01/29 06:15:52;;;;;;;7.22;3.58;;;;;;;;;;4914827;28;20426;-66
2022/01/29 06:18:19;;;;;;;9.10;3.90;;;;;;;;;;4932350;28;20089;-66
2022/01/29 06:20:46;;;;;;;11.75;4.18;;;;;;;;;;4915076;28;20515;-67
2022/01/29 06:23:13;;;;;;;14.55;5.47;;;;;;;;;;4914641;28;20397;-66
2022/01/29 06:25:39;;;;;;;6.43;4.03;;;;;;;;;;4915089;28;20468;-68
2022/01/29 06:28:05;;;;;;;9.68;4.15;;;;;;;;;;4914699;28;20453;-67
2022/01/29 06:30:30;;;;;;;13.23;3.92;;;;;;;;;;4931985;28;20467;-66
2022/01/29 06:32:56;;;;;;;9.63;4.25;;;;;;;;;;4914208;28;20030;-66
2022/01/29 06:35:21;;;;;;;10.77;3.30;;;;;;;;;;4932857;28;20358;-68
2022/01/29 06:37:47;;;;;;;9.82;4.03;;;;;;;;;;4931928;28;20363;-67
2022/01/29 06:40:13;;;;;;;9.50;4.00;;;;;;;;;;4914166;28;20034;-66
2022/01/29 06:42:38;;;;;;;9.30;3.85;;;;;;;;;;4914785;28;20334;-67
2022/01/29 06:45:04;;;;;;;13.05;4.55;;;;;;;;;;4932651;28;20348;-66
2022/01/29 06:47:29;;;;;;;7.55;3.45;;;;;;;;;;4931513;28;20322;-66
2022/01/29 06:49:55;;;;;;;12.40;4.03;;;;;;;;;;4931133;28;20396;-66
2022/01/29 06:52:21;;;;;;;10.27;4.55;;;;;;;;;;4914277;28;20062;-67
2022/01/29 06:54:46;;;;;;;12.73;4.38;;;;;;;;;;4931091;28;20413;-66
2022/01/29 06:57:11;;;;;;;11.80;4.13;;;;;;;;;;4914873;28;20286;-66
2022/01/29 06:59:36;;;;;;;15.18;5.65;;;;;;;;;;4932709;28;20026;-66
2022/01/29 07:02:02;;;;;;;8.65;3.90;;;;;;;;;;4931369;28;20438;-66
2022/01/29 07:04:27;;;;;;;10.25;4.47;;;;;;;;;;4914841;28;20504;-66
2022/01/29 07:06:53;;;;;;;12.38;4.38;;;;;;;;;;4932602;28;20337;-66
2022/01/29 07:09:18;;;;;;;16.10;4.88;;;;;;;;;;4936338;28;20456;-67
2022/01/29 07:11:44;;;;;;;12.60;4.60;;;;;;;;;;4950430;28;20376;-67
2022/01/29 07:14:15;;;;;;;7.72;3.70;;;;;;;;;;4951784;28;20025;-66
2022/01/29 07:16:41;;;;;;;11.68;5.10;;;;;;;;;;4913748;28;20389;-66
2022/01/29 07:19:06;;;;;;;15.00;5.15;;;;;;;;;;4930190;28;20345;-66
2022/01/29 07:21:31;;;;;;;10.00;4.13;;;;;;;;;;4950357;28;20416;-66
2022/01/29 07:23:56;;;;;;;12.07;5.00;;;;;;;;;;4932800;28;20380;-67
2022/01/29 07:26:22;;;;;;;10.82;4.47;;;;;;;;;;4950429;28;20105;-66
2022/01/29 07:28:47;;;;;;;11.15;4.95;;;;;;;;;;4932490;28;20455;-67
2022/01/29 07:31:13;;;;;;;14.40;6.15;;;;;;;;;;4950282;28;20451;-66
2022/01/29 07:33:38;;;;;;;14.48;5.38;;;;;;;;;;4950137;28;20448;-66
2022/01/29 07:36:04;;;;;;;12.25;5.10;;;;;;;;;;4933154;28;20492;-67
2022/01/29 07:38:29;;;;;;;11.10;5.13;;;;;;;;;;4951439;28;20380;-66
2022/01/29 07:40:54;;;;;;;14.73;6.18;;;;;;;;;;4932336;28;20452;-66
2022/01/29 07:43:20;;;;;;;15.82;5.50;;;;;;;;;;4932747;28;20508;-67
2022/01/29 07:45:45;;;;;;;15.23;6.05;;;;;;;;;;4950757;28;20651;-66
2022/01/29 07:48:10;;;;;;;13.38;5.70;;;;;;;;;;4949753;28;20365;-66
2022/01/29 07:50:36;;;;;;;12.52;5.50;;;;;;;;;;4932700;28;20081;-67
2022/01/29 07:53:01;;;;;;;13.25;5.88;;;;;;;;;;4932741;28;20444;-66
2022/01/29 07:55:27;;;;;;;17.77;6.13;;;;;;;;;;4950367;28;20132;-67
2022/01/29 07:57:52;;;;;;;14.40;5.30;;;;;;;;;;4949980;28;20317;-66
2022/01/29 08:00:18;;;;;;;16.50;6.30;;;;;;;;;;4932246;28;20415;-66
2022/01/29 08:02:43;;;;;;;11.57;5.32;;;;;;;;;;4931962;28;20030;-67
2022/01/29 08:05:10;;;;;;;15.55;6.05;;;;;;;;;;4950175;28;20436;-66
2022/01/29 08:07:35;;;;;;;14.88;5.78;;;;;;;;;;4932243;28;20486;-66
2022/01/29 08:10:00;;;;;;;14.43;6.03;;;;;;;;;;4949516;28;20352;-66
2022/01/29 08:12:26;;;;;;;14.25;6.07;;;;;;;;;;4953860;28;20468;-67
2022/01/29 08:14:51;;;;;;;17.77;6.43;;;;;;;;;;4955047;28;20497;-66
2022/01/29 08:17:16;;;;;;;12.38;6.50;;;;;;;;;;4936594;28;20324;-66
2022/01/29 08:19:42;;;;;;;11.43;5.63;;;;;;;;;;4935927;28;20480;-66
2022/01/29 08:22:07;;;;;;;16.02;6.13;;;;;;;;;;4953855;28;20332;-66
2022/01/29 08:24:32;;;;;;;15.38;5.82;;;;;;;;;;4953481;28;20053;-66
2022/01/29 08:26:58;;;;;;;11.85;5.10;;;;;;;;;;4954678;28;20613;-66
2022/01/29 08:29:23;;;;;;;14.52;5.97;;;;;;;;;;4953928;28;20409;-67
2022/01/29 08:31:48;;;;;;;12.05;5.75;;;;;;;;;;4953466;28;20330;-66
2022/01/29 08:34:14;;;;;;;12.77;5.78;;;;;;;;;;4935818;28;20029;-66
2022/01/29 08:36:39;;;;;;;13.20;6.60;;;;;;;;;;4953237;28;20026;-66
2022/01/29 08:39:04;;;;;;;15.25;6.32;;;;;;;;;;4952610;28;20468;-66
2022/01/29 08:41:30;;;;;;;15.48;6.03;;;;;;;;;;4935694;28;20173;-67
2022/01/29 08:43:55;;;;;;;16.88;6.40;;;;;;;;;;4935551;28;20516;-66
2022/01/29 08:46:20;;;;;;;17.98;6.93;;;;;;;;;;4953060;28;20437;-67
2022/01/29 08:48:45;;;;;;;13.68;6.10;;;;;;;;;;4954708;28;20309;-67
2022/01/29 08:51:11;;;;;;;19.42;6.07;;;;;;;;;;4954053;28;20384;-66
2022/01/29 08:53:37;;;;;;;14.35;6.72;;;;;;;;;;4953063;28;20113;-66
2022/01/29 08:56:03;;;;;;;15.23;6.05;;;;;;;;;;4953060;28;20471;-66
2022/01/29 08:58:29;;;;;;;16.70;7.15;;;;;;;;;;4965073;28;20382;-67
2022/01/29 09:00:54;;;;;;;15.82;5.90;;;;;;;;;;4972654;28;20047;-66
2022/01/29 09:03:20;;;;;;;14.88;5.85;;;;;;;;;;4972234;28;20555;-67
2022/01/29 09:05:46;;;;;;;18.02;7.03;;;;;;;;;;4972145;28;20375;-66
2022/01/29 09:08:13;;;;;;;16.48;6.68;;;;;;;;;;4972339;28;20364;-66
2022/01/29 09:10:38;;;;;;;14.40;6.00;;;;;;;;;;4934439;28;20499;-67
2022/01/29 09:13:04;;;;;;;11.40;5.70;;;;;;;;;;4914497;28;20484;-66
2022/01/29 09:15:29;;;;;;;13.98;6.45;;;;;;;;;;4915180;28;20444;-66
2022/01/29 09:17:54;;;;;;;18.27;6.18;;;;;;;;;;4914776;28;20440;-67
2022/01/29 09:20:20;;;;;;;15.02;5.95;;;;;;;;;;4899104;28;20373;-66
2022/01/29 09:22:45;;;;;;;16.52;6.05;;;;;;;;;;4932194;28;20401;-67
2022/01/29 09:25:11;;;;;;;20.20;6.45;;;;;;;;;;4914755;28;20495;-66
2022/01/29 09:27:36;;;;;;;11.88;5.88;;;;;;;;;;4914565;28;20401;-66
2022/01/29 09:30:03;;;;;;;14.57;6.00;;;;;;;;;;4931763;28;20451;-67
2022/01/29 09:32:29;;;;;;;18.90;6.22;;;;;;;;;;4914453;28;20381;-67
2022/01/29 09:34:54;;;;;;;13.52;5.32;;;;;;;;;;4932164;28;20329;-67
2022/01/29 09:37:19;;;;;;;11.65;5.13;;;;;;;;;;4930667;28;20418;-68
2022/01/29 09:39:45;;;;;;;13.02;5.95;;;;;;;;;;4932231;28;20446;-67
2022/01/29 09:42:11;;;;;;;13.38;5.55;;;;;;;;;;4933601;28;20094;-67
2022/01/29 09:44:37;;;;;;;16.77;6.30;;;;;;;;;;4914201;28;20439;-67
2022/01/29 09:47:04;;;;;;;14.43;5.18;;;;;;;;;;4932280;28;20488;-67
2022/01/29 09:49:32;;;;;;;16.95;6.43;;;;;;;;;;4931281;28;20429;-67
2022/01/29 09:51:57;;;;;;;14.27;5.30;;;;;;;;;;4914710;28;20427;-67
2022/01/29 09:54:23;;;;;;;15.43;6.53;;;;;;;;;;4914431;28;20435;-68
2022/01/29 09:56:48;;;;;;;16.92;6.28;;;;;;;;;;4931725;28;20101;-67
2022/01/29 09:59:13;;;;;;;13.93;5.47;;;;;;;;;;4931849;28;20349;-68
2022/01/29 10:01:38;;;;;;;18.63;6.18;;;;;;;;;;4931529;28;20456;-67
2022/01/29 10:04:05;;;;;;;15.85;6.43;;;;;;;;;;4931041;28;20445;-68
2022/01/29 10:06:31;;;;;;;12.50;5.68;;;;;;;;;;4931766;28;20461;-67
2022/01/29 10:08:57;;;;;;;14.83;5.93;;;;;;;;;;4888327;28;1333435;-66
2022/01/29 10:11:24;;;;;;;15.95;6.60;;;;;;;;;;4934276;28;20344;-67
2022/01/29 10:13:49;;;;;;;12.75;5.55;;;;;;;;;;4933865;28;20396;-67
2022/01/29 10:16:20;;;;;;;14.93;5.57;;;;;;;;;;4934531;28;20462;-68
2022/01/29 10:18:48;;;;;;;16.25;6.60;;;;;;;;;;4934012;28;20026;-68
2022/01/29 10:21:15;;;;;;;12.90;5.75;;;;;;;;;;4951417;28;20459;-67
2022/01/29 10:23:41;;;;;;;15.05;5.95;;;;;;;;;;4918517;28;20421;-67
2022/01/29 10:26:09;;;;;;;12.07;4.88;;;;;;;;;;4933591;28;20390;-68
2022/01/29 10:28:35;;;;;;;13.43;6.13;;;;;;;;;;4933885;28;20326;-67
2022/01/29 10:31:03;;;;;;;12.27;5.35;;;;;;;;;;4950952;28;20381;-68
2022/01/29 10:33:39;;;;;;;15.95;5.90;;;;;;;;;;4932696;28;20515;-68
2022/01/29 10:36:10;;;;;;;12.25;5.63;;;;;;;;;;4933659;28;20448;-67
2022/01/29 10:38:41;;;;;;;13.65;5.82;;;;;;;;;;4933522;28;20384;-67
2022/01/29 10:41:24;;;;;;;14.30;5.40;;;;;;;;;;4933572;28;20420;-67
2022/01/29 10:43:58;;;;;;;12.93;5.60;;;;;;;;;;4950659;28;20421;-67
2022/01/29 10:46:31;;;;;;;15.50;5.07;;;;;;;;;;4950812;28;20471;-67
2022/01/29 10:48:58;;;;;;;16.10;6.18;;;;;;;;;;4951484;28;20369;-68
2022/01/29 10:51:23;;;;;;;9.25;4.55;;;;;;;;;;4950283;28;20432;-68
2022/01/29 10:53:49;;;;;;;11.98;4.72;;;;;;;;;;4951183;28;20491;-68
2022/01/29 10:56:14;;;;;;;14.98;5.28;;;;;;;;;;4932880;28;20452;-67
2022/01/29 10:58:43;;;;;;;14.93;5.13;;;;;;;;;;4932941;28;20419;-68
2022/01/29 11:01:20;;;;;;;12.50;5.43;;;;;;;;;;4950668;28;20440;-67
2022/01/29 11:03:45;;;;;;;11.52;4.50;;;;;;;;;;4950341;28;20345;-68
2022/01/29 11:06:20;;;;;;;11.60;5.15;;;;;;;;;;4932712;28;20380;-67
2022/01/29 11:08:45;;;;;;;10.00;4.72;;;;;;;;;;4949897;28;20119;-68
2022/01/29 11:11:13;;;;;;;13.20;5.25;;;;;;;;;;4950405;28;20515;-68
2022/01/29 11:13:39;;;;;;;11.77;5.07;;;;;;;;;;4933063;28;20033;-67
2022/01/29 11:16:05;;;;;;;14.32;5.45;;;;;;;;;;4950805;28;20392;-68
2022/01/29 11:18:33;;;;;;;9.02;4.80;;;;;;;;;;4932788;28;20101;-68
2022/01/29 11:21:00;;;;;;;13.48;5.13;;;;;;;;;;4951312;28;20365;-68
2022/01/29 11:23:26;;;;;;;15.48;5.38;;;;;;;;;;4949805;28;20376;-67
2022/01/29 11:25:57;;;;;;;9.68;5.18;;;;;;;;;;4932508;28;20033;-67
2022/01/29 11:28:26;;;;;;;8.40;4.85;;;;;;;;;;4932269;28;20445;-68
2022/01/29 11:31:11;;;;;;;;;;;;;;;;;;4932828;28;20380;-68
2022/01/29 11:33:58;;;;;;;11.85;4.85;;;;;;;;;;4950655;28;19917;-68
2022/01/29 11:36:55;;;;;;;10.27;5.15;;;;;;;;;;4950212;28;20325;-67
2022/01/29 11:39:22;;;;;;;16.83;5.95;;;;;;;;;;4906857;28;20125;-68
2022/01/29 11:42:13;;;;;;;10.93;4.93;;;;;;;;;;4932338;28;20321;-67
2022/01/29 11:44:39;;;;;;;13.48;5.45;;;;;;;;;;4951353;28;20425;-68
2022/01/29 11:47:25;;;;;;;10.73;5.00;;;;;;;;;;4932203;28;20385;-67
2022/01/29 11:50:37;;;;;;;12.75;5.25;;;;;;;;;;4949880;28;20357;-68
2022/01/29 11:53:04;;;;;;;11.02;5.20;;;;;;;;;;4941781;28;20132;-67
2022/01/29 11:55:39;;;;;;;13.50;5.60;;;;;;;;;;4969524;28;20371;-68
2022/01/29 11:58:15;;;;;;;15.45;4.72;;;;;;;;;;4969029;28;20468;-67
2022/01/29 12:00:40;;;;;;;16.85;5.78;;;;;;;;;;4969814;28;20044;-67
2022/01/29 12:03:06;;;;;;;11.23;5.40;;;;;;;;;;4951595;28;20425;-68
2022/01/29 12:09:01;;;;;;;11.85;4.82;;;;;;;;;;4969508;28;20498;-68
2022/01/29 12:11:27;;;;;;;14.23;5.35;;;;;;;;;;4930278;28;20061;-68
2022/01/29 12:14:14;;;;;;;14.88;5.10;;;;;;;;;;4929929;28;20022;-69
2022/01/29 12:16:55;;;;;;;13.88;4.95;;;;;;;;;;4930185;28;20450;-68
2022/01/29 12:19:32;;;;;;;13.15;5.35;;;;;;;;;;4930445;28;20472;-68
2022/01/29 12:21:59;;;;;;;11.95;5.50;;;;;;;;;;4929931;28;20330;-68
2022/01/29 12:24:24;;;;;;;15.10;5.60;;;;;;;;;;4912441;28;20385;-67
2022/01/29 12:26:57;;;;;;;18.52;5.85;;;;;;;;;;4930349;28;20341;-68
2022/01/29 12:29:22;;;;;;;13.57;5.13;;;;;;;;;;4912234;28;20509;-67
2022/01/29 12:31:56;;;;;;;11.10;4.53;;;;;;;;;;4929861;28;20577;-68
2022/01/29 12:34:21;;;;;;;13.95;5.40;;;;;;;;;;4913238;28;20460;-68
2022/01/29 12:36:47;;;;;;;13.77;4.82;;;;;;;;;;4912755;28;20453;-68
2022/01/29 12:39:20;;;;;;;12.15;5.70;;;;;;;;;;4930390;28;20440;-68
2022/01/29 12:42:00;;;;;;;9.63;4.82;;;;;;;;;;4929470;28;20525;-69
2022/01/29 12:44:26;;;;;;;11.82;4.60;;;;;;;;;;4913433;28;20038;-68
2022/01/29 12:46:51;;;;;;;12.52;5.15;;;;;;;;;;4929988;28;20030;-68
2022/01/29 12:49:16;;;;;;;12.25;4.55;;;;;;;;;;4931148;28;20526;-68
2022/01/29 12:51:49;;;;;;;11.50;4.55;;;;;;;;;;4914009;28;20454;-68
2022/01/29 12:54:14;;;;;;;12.77;5.20;;;;;;;;;;4912511;28;20113;-68
2022/01/29 12:56:40;;;;;;;11.07;4.90;;;;;;;;;;4913311;28;20440;-68
2022/01/29 12:59:08;;;;;;;13.80;5.63;;;;;;;;;;4933422;28;20349;-69
2022/01/29 13:01:34;;;;;;;11.50;4.82;;;;;;;;;;4933593;28;20338;-69
2022/01/29 13:04:04;;;;;;;13.00;5.00;;;;;;;;;;4934658;28;20422;-68
2022/01/29 13:06:29;;;;;;;14.52;4.30;;;;;;;;;;4900780;28;20311;-67
2022/01/29 13:09:16;;;;;;;12.18;5.00;;;;;;;;;;4933901;28;20330;-68
2022/01/29 13:11:42;;;;;;;10.02;4.22;;;;;;;;;;4953028;28;20435;-68
2022/01/29 13:14:15;;;;;;;13.75;4.85;;;;;;;;;;4934315;28;20431;-68
2022/01/29 13:16:41;;;;;;;13.48;5.25;;;;;;;;;;4952493;28;20336;-68
2022/01/29 13:19:06;;;;;;;11.40;4.55;;;;;;;;;;4952425;28;20029;-68
2022/01/29 13:21:33;;;;;;;9.95;4.35;;;;;;;;;;4951869;28;20481;-68
2022/01/29 13:24:00;;;;;;;12.68;4.65;;;;;;;;;;4935045;28;20378;-69
2022/01/29 13:26:29;;;;;;;10.05;4.18;;;;;;;;;;4952032;28;20087;-68
2022/01/29 13:29:00;;;;;;;10.60;4.75;;;;;;;;;;4952147;28;20317;-68
2022/01/29 13:31:26;;;;;;;14.88;4.47;;;;;;;;;;4952176;28;20056;-69
2022/01/29 13:33:51;;;;;;;9.43;3.95;;;;;;;;;;4934534;28;20441;-68
2022/01/29 13:36:30;;;;;;;13.00;5.03;;;;;;;;;;4934537;28;20412;-68
2022/01/29 13:39:07;;;;;;;9.30;4.28;;;;;;;;;;4952006;28;20344;-68
2022/01/29 13:41:32;;;;;;;19.58;4.63;;;;;;;;;;4951833;28;20460;-68
2022/01/29 13:44:07;;;;;;;13.40;4.72;;;;;;;;;;4952029;28;20373;-68
2022/01/29 13:46:32;;;;;;;13.57;4.75;;;;;;;;;;4952816;28;20424;-69
2022/01/29 13:48:58;;;;;;;15.90;5.65;;;;;;;;;;4934256;28;20429;-69
2022/01/29 13:51:39;;;;;;;14.52;5.18;;;;;;;;;;4934304;28;20314;-68
2022/01/29 13:54:05;;;;;;;14.90;5.78;;;;;;;;;;4950691;28;20409;-68
2022/01/29 13:56:32;;;;;;;20.50;7.45;;;;;;;;;;4953469;28;20302;-68
2022/01/29 13:59:01;;;;;;;17.17;6.35;;;;;;;;;;4952508;28;20433;-69
2022/01/29 14:01:44;;;;;;;18.93;7.50;;;;;;;;;;4951743;28;20443;-69
2022/01/29 14:04:25;;;;;;;21.58;8.20;;;;;;;;;;4950260;28;20661;-69
2022/01/29 14:07:08;;;;;;;17.75;6.20;;;;;;;;;;4951507;28;20425;-69
2022/01/29 14:09:36;;;;;;;20.92;8.07;;;;;;;;;;4950951;28;20467;-68
2022/01/29 14:12:09;;;;;;;16.33;6.50;;;;;;;;;;4951769;28;20142;-68
2022/01/29 14:14:38;;;;;;;18.80;6.78;;;;;;;;;;4933294;28;20650;-69
2022/01/29 14:17:18;;;;;;;16.17;7.30;;;;;;;;;;4951464;28;20476;-68
2022/01/29 14:19:49;;;;;;;18.25;7.45;;;;;;;;;;4950709;28;20310;-68
2022/01/29 14:22:15;;;;;;;16.38;6.63;;;;;;;;;;4951172;28;20428;-68
2022/01/29 14:24:41;;;;;;;23.30;6.53;;;;;;;;;;4917774;28;20087;-68
2022/01/29 14:27:07;;;;;;;20.15;6.70;;;;;;;;;;4933372;28;20379;-68
2022/01/29 14:29:34;;;;;;;18.45;6.05;;;;;;;;;;4918030;28;20353;-68
2022/01/29 14:32:00;;;;;;;19.23;7.50;;;;;;;;;;4934032;28;20026;-69
2022/01/29 14:34:25;;;;;;;14.60;6.30;;;;;;;;;;4951300;28;20034;-68
2022/01/29 14:36:54;;;;;;;16.52;5.88;;;;;;;;;;4951309;28;20392;-68
2022/01/29 14:39:22;;;;;;;17.30;5.57;;;;;;;;;;4935124;28;20029;-69
2022/01/29 14:41:47;;;;;;;16.50;6.35;;;;;;;;;;4934687;28;20443;-69
2022/01/29 14:44:13;;;;;;;16.50;5.88;;;;;;;;;;4950987;28;20345;-69
2022/01/29 14:46:38;;;;;;;16.55;6.22;;;;;;;;;;4950486;28;20453;-70
2022/01/29 14:49:03;;;;;;;13.65;6.20;;;;;;;;;;4933697;28;20125;-68
2022/01/29 14:51:34;;;;;;;12.75;5.10;;;;;;;;;;4950613;28;20416;-69